Terminal Aerodrome Forecast
Issued by NWS

Home | Current Version | Previous Version | Text Only | Print | Product List | Glossary On
Versions: 1 2 3 4 5 6 7 8 9 10 11 12 13
000
FTUS41 KLWX 071126
TAFMTN
TAF
KMTN 071126Z 0712/0812 31004KT P6SM BKN025 OVC050
     FM071300 30007KT P6SM SCT050 BKN200
     FM071400 30010G18KT P6SM SCT050 BKN200
     FM072200 30007KT P6SM FEW200
     FM080200 VRB03KT P6SM SCT200
     FM080700 VRB03KT P6SM SCT030 BKN130=

USA.gov is the U.S. government's official web portal to all federal, state and local government web resources and services.